createdAt,value
2022-10-05T00:00:53.161Z,66
2022-10-05T00:01:54.222Z,66
2022-10-05T00:02:55.135Z,66
2022-10-05T00:03:56.157Z,66
2022-10-05T00:04:57.249Z,65
2022-10-05T00:05:58.213Z,65
2022-10-05T00:06:59.241Z,65
2022-10-05T00:08:01.161Z,64
2022-10-05T00:09:02.122Z,65
2022-10-05T00:10:03.306Z,65
2022-10-05T00:11:05.112Z,65
2022-10-05T00:12:06.252Z,65
2022-10-05T00:13:08.174Z,66
2022-10-05T00:14:09.127Z,65
2022-10-05T00:15:10.155Z,65
2022-10-05T00:16:11.343Z,66
2022-10-05T00:17:12.147Z,62
2022-10-05T00:18:13.113Z,64
2022-10-05T00:19:14.153Z,62
2022-10-05T00:20:15.214Z,65
2022-10-05T00:21:16.121Z,65
2022-10-05T00:22:17.193Z,64
2022-10-05T00:23:18.212Z,64
2022-10-05T00:24:19.169Z,65
2022-10-05T00:25:20.190Z,64
2022-10-05T00:26:21.194Z,64
2022-10-05T00:27:22.212Z,64
2022-10-05T00:28:23.228Z,64
2022-10-05T00:29:24.213Z,62
2022-10-05T00:30:25.137Z,62
2022-10-05T00:31:26.198Z,62
2022-10-05T00:32:27.152Z,64
2022-10-05T00:33:28.213Z,64
2022-10-05T00:34:29.173Z,64
2022-10-05T00:35:30.152Z,65
2022-10-05T00:36:31.233Z,65
2022-10-05T00:37:32.129Z,64
2022-10-05T00:38:33.193Z,61
2022-10-05T00:39:34.314Z,62
2022-10-05T00:40:36.413Z,62
2022-10-05T00:41:38.255Z,62
2022-10-05T00:42:39.133Z,64
2022-10-05T00:43:40.254Z,64
2022-10-05T00:44:42.253Z,64
2022-10-05T00:45:44.355Z,62
2022-10-05T00:46:46.493Z,62
2022-10-05T00:47:47.201Z,64
2022-10-05T00:48:48.154Z,64
2022-10-05T00:49:49.196Z,64
2022-10-05T00:50:50.212Z,64
2022-10-05T00:51:51.152Z,62
2022-10-05T00:52:52.193Z,62
2022-10-05T00:53:53.192Z,62
2022-10-05T00:54:54.171Z,64
2022-10-05T00:55:55.237Z,65
2022-10-05T00:56:56.172Z,64
2022-10-05T00:57:57.213Z,64
2022-10-05T00:58:58.252Z,63
2022-10-05T00:59:59.193Z,62
2022-10-05T01:03:57.250Z,62
2022-10-05T01:04:59.132Z,61
2022-10-05T01:06:00.132Z,62
2022-10-05T01:07:01.192Z,62
2022-10-05T01:08:02.252Z,62
2022-10-05T01:09:03.181Z,61
2022-10-05T01:10:04.232Z,62
2022-10-05T01:11:05.230Z,62
2022-10-05T01:12:06.211Z,62
2022-10-05T01:13:07.214Z,61
2022-10-05T01:14:08.201Z,62
2022-10-05T01:15:09.197Z,61
2022-10-05T01:16:11.424Z,62
2022-10-05T01:17:13.233Z,62
2022-10-05T01:18:14.203Z,62
2022-10-05T01:19:15.192Z,62
2022-10-05T01:20:16.211Z,62
2022-10-05T01:21:17.259Z,64
2022-10-05T01:22:19.320Z,65
2022-10-05T01:23:24.136Z,65
2022-10-05T01:24:25.216Z,64
2022-10-05T01:25:26.157Z,62
2022-10-05T01:26:27.291Z,62
2022-10-05T01:27:28.211Z,63
2022-10-05T01:28:29.271Z,62
2022-10-05T01:29:30.232Z,64
2022-10-05T01:30:31.194Z,64
2022-10-05T01:31:32.233Z,62
2022-10-05T01:32:34.294Z,64
2022-10-05T01:33:36.252Z,64
2022-10-05T01:34:37.231Z,64
2022-10-05T01:35:38.152Z,65
2022-10-05T01:36:39.210Z,65
2022-10-05T01:37:41.272Z,66
2022-10-05T01:38:43.212Z,65
2022-10-05T01:39:44.334Z,64
2022-10-05T01:40:46.212Z,64
2022-10-05T01:41:47.256Z,64
2022-10-05T01:42:48.279Z,64
2022-10-05T01:43:49.252Z,64
2022-10-05T01:44:50.283Z,64
2022-10-05T01:45:51.336Z,64
2022-10-05T01:46:52.211Z,65
2022-10-05T01:47:53.254Z,64
2022-10-05T01:48:54.252Z,64
2022-10-05T01:49:55.251Z,64
2022-10-05T01:50:56.239Z,62
2022-10-05T01:51:57.252Z,62
2022-10-05T01:52:58.251Z,61
2022-10-05T01:53:59.191Z,61
2022-10-05T01:55:00.212Z,62
2022-10-05T01:56:01.332Z,62
2022-10-05T01:57:02.257Z,62
2022-10-05T01:58:03.232Z,64
2022-10-05T01:59:04.232Z,64
2022-10-05T02:00:05.233Z,64
2022-10-05T02:01:06.350Z,65
2022-10-05T02:02:07.285Z,65
2022-10-05T02:03:08.181Z,65
2022-10-05T02:04:09.144Z,65
2022-10-05T02:05:10.373Z,66
2022-10-05T02:06:12.211Z,66
2022-10-05T02:07:13.172Z,65
2022-10-05T02:08:14.192Z,66
2022-10-05T02:09:15.212Z,65
2022-10-05T02:10:16.251Z,65
2022-10-05T02:11:17.251Z,65
2022-10-05T02:12:18.255Z,64
2022-10-05T02:13:19.252Z,62
2022-10-05T02:14:20.231Z,63
2022-10-05T02:15:21.353Z,62
2022-10-05T02:16:23.346Z,62
2022-10-05T02:17:24.295Z,62
2022-10-05T02:18:25.231Z,62
2022-10-05T02:19:26.253Z,62
2022-10-05T02:20:27.267Z,62
2022-10-05T02:21:28.251Z,61
2022-10-05T02:22:29.144Z,61
2022-10-05T02:23:30.271Z,60
2022-10-05T02:24:31.259Z,60
2022-10-05T02:25:32.169Z,59
2022-10-05T02:26:33.231Z,59
2022-10-05T02:27:34.304Z,59
2022-10-05T02:28:35.277Z,59
2022-10-05T02:29:36.234Z,59
2022-10-05T02:30:37.263Z,59
2022-10-05T02:31:38.403Z,60
2022-10-05T02:32:39.241Z,61
2022-10-05T02:33:41.533Z,61
2022-10-05T02:34:43.272Z,61
2022-10-05T02:35:44.253Z,61
2022-10-05T02:36:45.470Z,60
2022-10-05T02:37:46.292Z,61
2022-10-05T02:38:47.235Z,61
2022-10-05T02:39:48.292Z,62
2022-10-05T02:40:49.299Z,61
2022-10-05T02:41:50.213Z,63
2022-10-05T02:42:51.263Z,64
2022-10-05T02:43:52.252Z,64
2022-10-05T02:44:53.239Z,64
2022-10-05T02:45:54.396Z,64
2022-10-05T02:46:57.540Z,61
2022-10-05T02:47:58.260Z,61
2022-10-05T02:48:59.310Z,61
2022-10-05T02:50:00.332Z,61
2022-10-05T02:51:02.272Z,60
2022-10-05T02:52:03.275Z,60
2022-10-05T02:53:04.252Z,61
2022-10-05T02:54:05.251Z,60
2022-10-05T02:55:06.293Z,62
2022-10-05T02:56:07.282Z,62
2022-10-05T02:57:08.295Z,61
2022-10-05T02:58:09.278Z,60
2022-10-05T02:59:10.252Z,60
2022-10-05T03:00:11.251Z,60
2022-10-05T03:01:12.367Z,61
2022-10-05T03:02:13.351Z,61
2022-10-05T03:03:14.352Z,60
2022-10-05T03:04:16.231Z,60
2022-10-05T03:05:17.292Z,60
2022-10-05T03:06:18.286Z,59
2022-10-05T03:07:19.379Z,60
2022-10-05T03:08:21.379Z,60
2022-10-05T03:09:23.279Z,60
2022-10-05T03:10:24.239Z,59
2022-10-05T03:11:25.292Z,60
2022-10-05T03:12:27.251Z,60
2022-10-05T03:13:28.335Z,60
2022-10-05T03:14:29.252Z,60
2022-10-05T03:15:30.291Z,60
2022-10-05T03:16:31.349Z,59
2022-10-05T03:17:33.191Z,61
2022-10-05T03:18:34.265Z,60
2022-10-05T03:19:35.351Z,61
2022-10-05T03:20:37.242Z,60
2022-10-05T03:21:38.243Z,60
2022-10-05T03:22:39.272Z,60
2022-10-05T03:23:40.294Z,59
2022-10-05T03:24:42.271Z,59
2022-10-05T03:25:43.211Z,59
2022-10-05T03:26:44.526Z,59
2022-10-05T03:27:45.257Z,60
2022-10-05T03:28:46.315Z,60
2022-10-05T03:29:47.233Z,59
2022-10-05T03:30:48.367Z,59
2022-10-05T03:31:49.208Z,59
2022-10-05T03:32:50.272Z,59
2022-10-05T03:33:51.331Z,59
2022-10-05T03:34:52.240Z,60
2022-10-05T03:35:53.293Z,61
2022-10-05T03:36:54.254Z,60
2022-10-05T03:37:55.352Z,57
2022-10-05T03:38:57.392Z,58
2022-10-05T03:39:59.251Z,58
2022-10-05T03:41:00.252Z,59
2022-10-05T03:42:01.311Z,59
2022-10-05T03:43:02.280Z,60
2022-10-05T03:44:03.317Z,59
2022-10-05T03:45:04.251Z,59
2022-10-05T03:46:05.396Z,59
2022-10-05T03:47:07.234Z,60
2022-10-05T03:48:08.301Z,59
2022-10-05T03:49:09.237Z,59
2022-10-05T03:50:10.431Z,59
2022-10-05T03:51:12.272Z,59
2022-10-05T03:52:13.275Z,59
2022-10-05T03:53:14.233Z,59
2022-10-05T03:54:15.271Z,59
2022-10-05T03:55:16.261Z,60
2022-10-05T03:56:17.291Z,60
2022-10-05T03:57:18.333Z,60
2022-10-05T03:58:20.410Z,60
2022-10-05T03:59:22.296Z,60
2022-10-05T04:00:23.278Z,60
2022-10-05T04:01:24.347Z,59
2022-10-05T04:02:25.343Z,59
2022-10-05T04:03:27.393Z,59
2022-10-05T04:04:29.312Z,59
2022-10-05T04:05:30.291Z,60
2022-10-05T04:06:31.277Z,59
2022-10-05T04:07:32.336Z,58
2022-10-05T04:08:33.415Z,58
2022-10-05T04:09:35.284Z,57
2022-10-05T04:10:36.291Z,57
2022-10-05T04:11:37.311Z,58
2022-10-05T04:12:38.271Z,56
2022-10-05T04:13:39.315Z,58
2022-10-05T04:14:40.280Z,56
2022-10-05T04:15:41.419Z,56
2022-10-05T04:16:43.671Z,56
2022-10-05T04:17:44.276Z,56
2022-10-05T04:18:45.294Z,56
2022-10-05T04:19:46.312Z,56
2022-10-05T04:20:47.295Z,56
2022-10-05T04:21:48.312Z,56
2022-10-05T04:22:49.311Z,56
2022-10-05T04:23:50.331Z,56
2022-10-05T04:24:51.264Z,57
2022-10-05T04:25:52.281Z,56
2022-10-05T04:26:53.290Z,56
2022-10-05T04:27:54.335Z,56
2022-10-05T04:28:55.293Z,56
2022-10-05T04:29:56.278Z,56
2022-10-05T04:30:57.341Z,56
2022-10-05T04:31:58.239Z,57
2022-10-05T04:32:59.328Z,56
2022-10-05T04:34:00.327Z,55
2022-10-05T04:35:01.315Z,55
2022-10-05T04:36:02.312Z,55
2022-10-05T04:37:03.321Z,57
2022-10-05T04:38:04.267Z,62
2022-10-05T04:39:05.331Z,56
2022-10-05T04:40:06.373Z,56
2022-10-05T04:41:07.387Z,54
2022-10-05T04:42:08.272Z,54
2022-10-05T04:43:09.295Z,55
2022-10-05T04:44:10.197Z,55
2022-10-05T04:45:11.400Z,54
2022-10-05T04:46:13.353Z,54
2022-10-05T04:47:14.295Z,54
2022-10-05T04:48:15.255Z,54
2022-10-05T04:49:16.293Z,53
2022-10-05T04:50:17.347Z,54
2022-10-05T04:51:18.212Z,54
2022-10-05T04:52:19.310Z,54
2022-10-05T04:53:20.321Z,53
2022-10-05T04:54:21.271Z,54
2022-10-05T04:55:22.358Z,54
2022-10-05T04:56:23.273Z,55
2022-10-05T04:57:24.297Z,54
2022-10-05T04:58:25.299Z,54
2022-10-05T04:59:27.371Z,54
2022-10-05T05:00:29.450Z,54
2022-10-05T05:01:30.350Z,54
2022-10-05T05:02:32.331Z,53
2022-10-05T05:03:33.348Z,54
2022-10-05T05:04:34.293Z,54
2022-10-05T05:05:35.432Z,53
2022-10-05T05:06:37.259Z,53
2022-10-05T05:07:38.253Z,53
2022-10-05T05:08:39.292Z,55
2022-10-05T05:09:40.469Z,54
2022-10-05T05:10:42.428Z,53
2022-10-05T05:11:44.371Z,54
2022-10-05T05:12:45.308Z,54
2022-10-05T05:13:46.355Z,55
2022-10-05T05:14:47.304Z,54
2022-10-05T05:15:48.541Z,54
2022-10-05T05:16:49.645Z,55
2022-10-05T05:17:51.396Z,54
2022-10-05T05:18:53.391Z,54
2022-10-05T05:19:55.302Z,55
2022-10-05T05:20:57.412Z,54
2022-10-05T05:21:59.259Z,54
2022-10-05T05:23:00.283Z,53
2022-10-05T05:24:01.279Z,54
2022-10-05T05:25:02.311Z,54
2022-10-05T05:26:03.275Z,53
2022-10-05T05:27:04.313Z,53
2022-10-05T05:28:05.340Z,53
2022-10-05T05:29:06.312Z,52
2022-10-05T05:30:07.384Z,52
2022-10-05T05:31:08.444Z,53
2022-10-05T05:32:10.311Z,53
2022-10-05T05:33:11.351Z,54
2022-10-05T05:34:12.352Z,53
2022-10-05T05:35:13.324Z,53
2022-10-05T05:36:14.332Z,53
2022-10-05T05:37:15.293Z,53
2022-10-05T05:38:16.323Z,54
2022-10-05T05:39:17.373Z,53
2022-10-05T05:40:18.338Z,53
2022-10-05T05:41:19.312Z,52
2022-10-05T05:42:20.312Z,53
2022-10-05T05:43:21.352Z,53
2022-10-05T05:44:22.311Z,53
2022-10-05T05:45:23.312Z,53
2022-10-05T05:46:34.135Z,53
2022-10-05T05:47:25.314Z,54
2022-10-05T05:48:26.392Z,54
2022-10-05T05:49:27.291Z,55
2022-10-05T05:50:28.351Z,53
2022-10-05T05:51:29.259Z,54
2022-10-05T05:52:30.280Z,56
2022-10-05T05:53:31.365Z,57
2022-10-05T05:54:32.256Z,57
2022-10-05T05:55:33.433Z,58
2022-10-05T05:56:35.406Z,58
2022-10-05T05:57:36.312Z,57
2022-10-05T05:58:37.432Z,58
2022-10-05T05:59:39.312Z,59
2022-10-05T06:00:40.362Z,57
2022-10-05T06:01:44.424Z,60
2022-10-05T06:02:42.408Z,61
2022-10-05T06:03:43.337Z,61
2022-10-05T06:04:44.379Z,59
2022-10-05T06:05:45.334Z,57
2022-10-05T06:06:46.532Z,58
2022-10-05T06:07:47.316Z,60
2022-10-05T06:08:48.343Z,61
2022-10-05T06:09:49.359Z,60
2022-10-05T06:10:50.314Z,58
2022-10-05T06:11:51.339Z,58
2022-10-05T06:12:52.340Z,56
2022-10-05T06:13:53.352Z,57
2022-10-05T06:14:54.361Z,56
2022-10-05T06:15:55.375Z,57
2022-10-05T06:16:56.441Z,57
2022-10-05T06:17:57.291Z,57
2022-10-05T06:18:58.333Z,55
2022-10-05T06:20:04.093Z,54
2022-10-05T06:21:00.352Z,53
2022-10-05T06:22:01.334Z,52
2022-10-05T06:23:02.348Z,54
2022-10-05T06:24:04.332Z,52
2022-10-05T06:25:05.454Z,51
2022-10-05T06:26:10.666Z,51
2022-10-05T06:27:08.447Z,50
2022-10-05T06:28:10.524Z,50
2022-10-05T06:29:12.394Z,51
2022-10-05T06:30:13.393Z,50
2022-10-05T06:31:14.437Z,50
2022-10-05T06:32:15.375Z,50
2022-10-05T06:33:16.335Z,51
2022-10-05T06:34:17.407Z,50
2022-10-05T06:35:18.378Z,50
2022-10-05T06:36:19.311Z,52
2022-10-05T06:37:20.340Z,51
2022-10-05T06:38:21.531Z,50
2022-10-05T06:39:23.352Z,50
2022-10-05T06:40:24.380Z,50
2022-10-05T06:41:25.360Z,49
2022-10-05T06:42:26.318Z,50
2022-10-05T06:43:27.327Z,49
2022-10-05T06:44:28.371Z,50
2022-10-05T06:45:29.474Z,50
2022-10-05T06:46:30.373Z,51
2022-10-05T06:47:31.362Z,51
2022-10-05T06:48:32.409Z,51
2022-10-05T06:49:33.453Z,52
2022-10-05T06:50:34.420Z,52
2022-10-05T06:51:35.292Z,52
2022-10-05T06:52:36.396Z,54
2022-10-05T06:53:37.409Z,53
2022-10-05T06:54:38.403Z,52
2022-10-05T06:55:39.371Z,52
2022-10-05T06:56:40.411Z,52
2022-10-05T06:57:41.333Z,51
2022-10-05T06:58:42.411Z,51
2022-10-05T06:59:43.343Z,51
2022-10-05T07:00:44.524Z,50
2022-10-05T07:01:45.640Z,51
2022-10-05T07:02:46.355Z,51
2022-10-05T07:03:47.341Z,51
2022-10-05T07:04:48.391Z,50
2022-10-05T07:05:49.401Z,50
2022-10-05T07:06:50.434Z,50
2022-10-05T07:07:51.412Z,52
2022-10-05T07:08:52.479Z,52
2022-10-05T07:09:54.472Z,49
2022-10-05T07:10:56.372Z,49
2022-10-05T07:12:00.988Z,51
2022-10-05T07:12:58.295Z,51
2022-10-05T07:13:59.367Z,50
2022-10-05T07:15:00.371Z,50
2022-10-05T07:16:01.440Z,48
2022-10-05T07:17:02.432Z,49
2022-10-05T07:18:03.440Z,48
2022-10-05T07:19:04.420Z,49
2022-10-05T07:20:05.400Z,49
2022-10-05T07:21:06.391Z,49
2022-10-05T07:23:08.391Z,50
2022-10-05T07:24:09.511Z,49
2022-10-05T07:25:11.374Z,50
2022-10-05T07:26:12.337Z,49
2022-10-05T07:27:13.351Z,49
2022-10-05T07:28:14.410Z,49
2022-10-05T07:29:15.353Z,48
2022-10-05T07:30:16.506Z,50
2022-10-05T07:31:18.652Z,50
2022-10-05T07:32:20.439Z,50
2022-10-05T07:33:22.499Z,49
2022-10-05T07:34:23.433Z,49
2022-10-05T07:35:24.427Z,49
2022-10-05T07:36:25.397Z,49
2022-10-05T07:37:26.397Z,50
2022-10-05T07:38:27.371Z,50
2022-10-05T07:39:36.834Z,50
2022-10-05T07:40:29.431Z,51
2022-10-05T07:41:30.392Z,50
2022-10-05T07:42:31.371Z,50
2022-10-05T07:43:51.345Z,51
2022-10-05T07:44:33.452Z,50
2022-10-05T07:45:34.514Z,50
2022-10-05T07:46:35.414Z,50
2022-10-05T07:47:36.500Z,51
2022-10-05T07:48:38.359Z,51
2022-10-05T07:49:39.432Z,51
2022-10-05T07:50:40.412Z,51
2022-10-05T07:51:42.352Z,50
2022-10-05T07:52:43.392Z,52
2022-10-05T07:53:44.394Z,50
2022-10-05T07:54:45.372Z,51
2022-10-05T07:55:46.411Z,51
2022-10-05T07:56:47.741Z,51
2022-10-05T07:57:48.395Z,50
2022-10-05T07:58:49.414Z,51
2022-10-05T07:59:50.432Z,52
2022-10-05T08:00:51.465Z,50
2022-10-05T08:01:52.488Z,50
2022-10-05T08:02:53.503Z,51
2022-10-05T08:03:54.606Z,50
2022-10-05T08:04:56.402Z,49
2022-10-05T08:05:57.451Z,50
2022-10-05T08:06:58.411Z,51
2022-10-05T08:07:59.414Z,49
2022-10-05T08:09:00.401Z,51
2022-10-05T08:10:01.392Z,52
2022-10-05T08:11:02.432Z,49
2022-10-05T08:12:03.420Z,50
2022-10-05T08:13:04.387Z,50
2022-10-05T08:14:05.512Z,50
2022-10-05T08:15:07.512Z,49
2022-10-05T08:16:09.507Z,50
2022-10-05T08:17:10.633Z,49
2022-10-05T08:18:12.432Z,50
2022-10-05T08:19:13.515Z,50
2022-10-05T08:20:14.372Z,50
2022-10-05T08:21:15.431Z,50
2022-10-05T08:22:16.392Z,50
2022-10-05T08:23:17.426Z,50
2022-10-05T08:24:18.437Z,50
2022-10-05T08:25:19.431Z,50
2022-10-05T08:26:20.452Z,49
2022-10-05T08:27:21.511Z,49
2022-10-05T08:28:23.576Z,50
2022-10-05T08:29:25.460Z,51
2022-10-05T08:30:26.432Z,51
2022-10-05T08:31:27.545Z,51
2022-10-05T08:32:28.492Z,51
2022-10-05T08:33:29.431Z,50
2022-10-05T08:34:30.444Z,51
2022-10-05T08:35:31.451Z,51
2022-10-05T08:36:32.452Z,51
2022-10-05T08:37:33.357Z,51
2022-10-05T08:38:34.452Z,50
2022-10-05T08:39:35.419Z,49
2022-10-05T08:40:36.535Z,49
2022-10-05T08:41:38.556Z,49
2022-10-05T08:42:40.414Z,49
2022-10-05T08:43:41.435Z,48
2022-10-05T08:44:42.430Z,48
2022-10-05T08:45:43.565Z,50
2022-10-05T08:46:45.471Z,50
2022-10-05T08:47:46.425Z,48
2022-10-05T08:48:47.474Z,47
2022-10-05T08:49:48.416Z,48
2022-10-05T08:50:49.453Z,47
2022-10-05T08:51:50.471Z,47
2022-10-05T08:52:51.474Z,46
2022-10-05T08:53:52.521Z,45
2022-10-05T08:54:53.418Z,45
2022-10-05T08:55:54.452Z,45
2022-10-05T08:56:55.451Z,45
2022-10-05T08:57:56.460Z,46
2022-10-05T08:58:57.434Z,46
2022-10-05T08:59:58.474Z,45
2022-10-05T09:00:59.506Z,45
2022-10-05T09:02:00.472Z,45
2022-10-05T09:03:01.586Z,45
2022-10-05T09:04:02.533Z,46
2022-10-05T09:05:04.581Z,45
2022-10-05T09:06:05.432Z,47
2022-10-05T09:07:06.527Z,47
2022-10-05T09:08:08.549Z,46
2022-10-05T09:09:10.539Z,46
2022-10-05T09:10:11.432Z,45
2022-10-05T09:11:12.501Z,46
2022-10-05T09:12:13.492Z,45
2022-10-05T09:13:14.491Z,46
2022-10-05T09:14:15.512Z,46
2022-10-05T09:15:31.556Z,47
2022-10-05T09:16:17.563Z,45
2022-10-05T09:17:18.452Z,46
2022-10-05T09:18:19.493Z,45
2022-10-05T09:19:20.532Z,45
2022-10-05T09:20:21.516Z,47
2022-10-05T09:21:22.492Z,45
2022-10-05T09:22:23.451Z,44
2022-10-05T09:23:24.474Z,44
2022-10-05T09:24:25.416Z,44
2022-10-05T09:25:26.537Z,45
2022-10-05T09:26:28.432Z,46
2022-10-05T09:27:29.451Z,45
2022-10-05T09:28:30.526Z,44
2022-10-05T09:29:31.474Z,45
2022-10-05T09:30:32.573Z,45
2022-10-05T09:31:34.497Z,45
2022-10-05T09:32:35.532Z,44
2022-10-05T09:33:36.514Z,44
2022-10-05T09:34:37.492Z,45
2022-10-05T09:35:38.589Z,45
2022-10-05T09:36:40.502Z,44
2022-10-05T09:37:41.519Z,44
2022-10-05T09:38:42.493Z,44
2022-10-05T09:39:43.451Z,44
2022-10-05T09:40:44.618Z,45
2022-10-05T09:41:49.418Z,45
2022-10-05T09:42:50.479Z,45
2022-10-05T09:43:51.451Z,44
2022-10-05T09:44:52.532Z,44
2022-10-05T09:45:54.584Z,45
2022-10-05T09:46:56.412Z,44
2022-10-05T09:47:57.459Z,44
2022-10-05T09:48:58.511Z,45
2022-10-05T09:49:59.432Z,44
2022-10-05T09:51:00.534Z,44
2022-10-05T09:52:01.476Z,44
2022-10-05T09:53:02.511Z,44
2022-10-05T09:54:03.451Z,43
2022-10-05T09:55:04.645Z,45
2022-10-05T09:56:05.463Z,45
2022-10-05T09:57:06.500Z,44
2022-10-05T09:58:07.613Z,44
2022-10-05T09:59:09.419Z,44
2022-10-05T10:00:10.512Z,44
2022-10-05T10:01:22.279Z,44
2022-10-05T10:02:12.631Z,44
2022-10-05T10:03:13.560Z,44
2022-10-05T10:04:14.419Z,44
2022-10-05T10:05:15.452Z,44
2022-10-05T10:06:16.601Z,44
2022-10-05T10:07:17.471Z,44
2022-10-05T10:08:18.532Z,44
2022-10-05T10:09:19.479Z,44
2022-10-05T10:10:20.432Z,44
2022-10-05T10:11:21.451Z,45
2022-10-05T10:12:22.641Z,45
2022-10-05T10:13:24.453Z,45
2022-10-05T10:14:25.452Z,44
2022-10-05T10:15:26.519Z,45
2022-10-05T10:16:27.555Z,45
2022-10-05T10:17:28.472Z,45
2022-10-05T10:18:29.432Z,45
2022-10-05T10:19:30.559Z,45
2022-10-05T10:20:31.552Z,45
2022-10-05T10:21:33.472Z,44
2022-10-05T10:22:34.571Z,45
2022-10-05T10:23:35.591Z,44
2022-10-05T10:24:37.625Z,44
2022-10-05T10:25:39.472Z,45
2022-10-05T10:26:40.517Z,44
2022-10-05T10:27:41.491Z,44
2022-10-05T10:28:42.515Z,44
2022-10-05T10:29:43.534Z,44
2022-10-05T10:30:45.125Z,45
2022-10-05T10:31:46.816Z,45
2022-10-05T10:32:48.612Z,45
2022-10-05T10:33:50.552Z,45
2022-10-05T10:34:52.553Z,44
2022-10-05T10:35:54.586Z,45
2022-10-05T10:36:55.495Z,44
2022-10-05T10:37:56.501Z,44
2022-10-05T10:38:57.474Z,44
2022-10-05T10:39:58.597Z,45
2022-10-05T10:40:59.499Z,45
2022-10-05T10:42:00.491Z,45
2022-10-05T10:43:01.518Z,45
2022-10-05T10:44:02.474Z,45
2022-10-05T10:45:03.592Z,46
2022-10-05T10:46:05.555Z,45
2022-10-05T10:47:06.472Z,45
2022-10-05T10:48:07.613Z,46
2022-10-05T10:49:09.573Z,45
2022-10-05T10:50:11.521Z,45
2022-10-05T10:51:12.532Z,45
2022-10-05T10:52:13.514Z,45
2022-10-05T10:53:14.535Z,44
2022-10-05T10:54:15.512Z,45
2022-10-05T10:55:16.531Z,45
2022-10-05T10:56:17.532Z,44
2022-10-05T10:57:18.513Z,45
2022-10-05T10:58:19.547Z,45
2022-10-05T10:59:20.572Z,45
2022-10-05T11:00:21.518Z,45
2022-10-05T11:01:22.576Z,45
2022-10-05T11:02:24.599Z,46
2022-10-05T11:03:25.613Z,45
2022-10-05T11:04:27.481Z,45
2022-10-05T11:05:28.432Z,45
2022-10-05T11:06:29.483Z,45
2022-10-05T11:07:30.585Z,45
2022-10-05T11:08:31.512Z,45
2022-10-05T11:09:32.533Z,45
2022-10-05T11:10:33.474Z,45
2022-10-05T11:11:34.574Z,45
2022-10-05T11:12:35.482Z,45
2022-10-05T11:13:36.505Z,45
2022-10-05T11:14:37.599Z,46
2022-10-05T11:15:39.603Z,46
2022-10-05T11:16:40.553Z,46
2022-10-05T11:17:41.446Z,45
2022-10-05T11:18:42.484Z,46
2022-10-05T11:19:59.450Z,46
2022-10-05T11:20:45.732Z,45
2022-10-05T11:21:47.640Z,45
2022-10-05T11:22:49.997Z,46
2022-10-05T11:23:51.532Z,46
2022-10-05T11:24:52.528Z,45
2022-10-05T11:25:54.633Z,46
2022-10-05T11:26:56.583Z,45
2022-10-05T11:27:57.638Z,45
2022-10-05T11:28:59.591Z,46
2022-10-05T11:30:00.532Z,46
2022-10-05T11:31:01.534Z,46
2022-10-05T11:32:02.532Z,46
2022-10-05T11:33:03.521Z,47
2022-10-05T11:34:05.492Z,46
2022-10-05T11:35:07.083Z,46
2022-10-05T11:36:08.552Z,45
2022-10-05T11:37:10.130Z,46
2022-10-05T11:38:11.580Z,46
2022-10-05T11:39:12.540Z,45
2022-10-05T11:40:13.746Z,45
2022-10-05T11:41:15.531Z,45
2022-10-05T11:42:16.922Z,46
2022-10-05T11:43:18.589Z,47
2022-10-05T11:44:20.599Z,46
2022-10-05T11:45:21.547Z,46
2022-10-05T11:46:22.695Z,46
2022-10-05T11:47:24.567Z,48
2022-10-05T11:48:25.491Z,47
2022-10-05T11:49:26.496Z,47
2022-10-05T11:50:27.559Z,48
2022-10-05T11:51:29.058Z,46
2022-10-05T11:52:29.496Z,47
2022-10-05T11:53:30.727Z,46
2022-10-05T11:54:46.845Z,47
2022-10-05T11:55:34.917Z,47
2022-10-05T11:56:36.514Z,47
2022-10-05T11:57:37.452Z,47
2022-10-05T11:58:38.552Z,47
2022-10-05T11:59:39.482Z,46
2022-10-05T12:00:40.757Z,46
2022-10-05T12:01:42.632Z,46
2022-10-05T12:02:45.173Z,46
2022-10-05T12:03:46.619Z,46
2022-10-05T12:04:47.673Z,47
2022-10-05T12:05:49.577Z,47
2022-10-05T12:06:51.089Z,46
2022-10-05T12:07:52.601Z,46
2022-10-05T12:08:53.636Z,47
2022-10-05T12:09:55.602Z,46
2022-10-05T12:10:56.572Z,46
2022-10-05T12:11:58.107Z,46
2022-10-05T12:12:58.819Z,47
2022-10-05T12:14:00.552Z,47
2022-10-05T12:15:01.581Z,47
2022-10-05T12:16:02.699Z,47
2022-10-05T12:17:04.562Z,49
2022-10-05T12:18:05.691Z,46
2022-10-05T12:19:07.492Z,47
2022-10-05T12:20:08.652Z,47
2022-10-05T12:21:10.592Z,47
2022-10-05T12:22:11.553Z,46
2022-10-05T12:23:12.572Z,47
2022-10-05T12:24:13.619Z,47
2022-10-05T12:25:14.582Z,47
2022-10-05T12:26:15.531Z,47
2022-10-05T12:27:16.593Z,47
2022-10-05T12:28:18.654Z,47
2022-10-05T12:29:20.554Z,47
2022-10-05T12:30:21.612Z,46
2022-10-05T12:31:22.648Z,47
2022-10-05T12:32:23.611Z,46
2022-10-05T12:33:24.573Z,47
2022-10-05T12:34:25.551Z,47
2022-10-05T12:35:43.716Z,47
2022-10-05T12:36:31.961Z,47
2022-10-05T12:37:28.601Z,47
2022-10-05T12:38:29.542Z,46
2022-10-05T12:39:30.630Z,47
2022-10-05T12:40:31.553Z,47
2022-10-05T12:41:32.967Z,48
2022-10-05T12:42:36.014Z,47
2022-10-05T12:43:34.571Z,48
2022-10-05T12:44:35.572Z,47
2022-10-05T12:45:36.619Z,48
2022-10-05T12:46:37.581Z,47
2022-10-05T12:47:38.532Z,47
2022-10-05T12:48:39.682Z,47
2022-10-05T12:49:41.633Z,48
2022-10-05T12:50:42.534Z,47
2022-10-05T12:51:43.509Z,48
2022-10-05T12:52:44.492Z,48
2022-10-05T12:53:45.559Z,47
2022-10-05T12:54:46.576Z,48
2022-10-05T12:55:47.553Z,47
2022-10-05T12:56:48.534Z,48
2022-10-05T12:57:49.582Z,47
2022-10-05T12:58:50.693Z,47
2022-10-05T12:59:52.632Z,47
2022-10-05T13:00:53.694Z,48
2022-10-05T13:01:55.602Z,47
2022-10-05T13:02:56.634Z,47
2022-10-05T13:03:57.571Z,47
2022-10-05T13:04:58.632Z,47
2022-10-05T13:06:02.579Z,46
2022-10-05T13:07:00.580Z,46
2022-10-05T13:08:01.671Z,47
2022-10-05T13:09:03.553Z,47
2022-10-05T13:10:04.565Z,46
2022-10-05T13:11:05.573Z,48
2022-10-05T13:12:06.574Z,47
2022-10-05T13:13:07.616Z,49
2022-10-05T13:14:08.488Z,47
2022-10-05T13:15:09.679Z,48
2022-10-05T13:16:11.857Z,47
2022-10-05T13:17:12.592Z,47
2022-10-05T13:18:13.690Z,47
2022-10-05T13:19:15.705Z,47
2022-10-05T13:20:17.583Z,48
2022-10-05T13:21:18.632Z,47
2022-10-05T13:22:19.743Z,47
2022-10-05T13:23:20.632Z,47
2022-10-05T13:24:21.642Z,47
2022-10-05T13:25:22.667Z,47
2022-10-05T13:26:24.589Z,47
2022-10-05T13:27:25.713Z,48
2022-10-05T13:28:27.635Z,49
2022-10-05T13:29:28.673Z,48
2022-10-05T13:30:30.712Z,47
2022-10-05T13:31:32.602Z,48
2022-10-05T13:32:33.652Z,49
2022-10-05T13:33:34.593Z,48
2022-10-05T13:34:35.772Z,47
2022-10-05T13:35:37.673Z,47
2022-10-05T13:36:39.660Z,48
2022-10-05T13:37:40.577Z,49
2022-10-05T13:38:41.606Z,49
2022-10-05T13:39:42.644Z,48
2022-10-05T13:40:43.647Z,48
2022-10-05T13:41:44.756Z,48
2022-10-05T13:42:46.612Z,48
2022-10-05T13:43:47.561Z,48
2022-10-05T13:44:48.576Z,46
2022-10-05T13:45:51.279Z,46
2022-10-05T13:46:50.717Z,46
2022-10-05T13:47:52.631Z,45
2022-10-05T13:48:53.576Z,45
2022-10-05T13:49:54.596Z,45
2022-10-05T13:50:55.587Z,45
2022-10-05T13:51:56.656Z,45
2022-10-05T13:52:57.678Z,46
2022-10-05T13:53:59.717Z,46
2022-10-05T13:55:01.697Z,45
2022-10-05T13:56:03.740Z,46
2022-10-05T13:57:05.597Z,47
2022-10-05T13:58:06.637Z,47
2022-10-05T13:59:07.636Z,48
2022-10-05T14:00:08.737Z,46
2022-10-05T14:01:10.898Z,44
2022-10-05T14:02:11.749Z,45
2022-10-05T14:03:12.625Z,45
2022-10-05T14:04:15.918Z,46
2022-10-05T14:05:18.597Z,45
2022-10-05T14:06:19.584Z,45
2022-10-05T14:07:20.693Z,47
2022-10-05T14:08:21.676Z,47
2022-10-05T14:09:22.696Z,47
2022-10-05T14:10:23.662Z,46
2022-10-05T14:11:24.592Z,47
2022-10-05T14:12:25.617Z,47
2022-10-05T14:13:26.811Z,47
2022-10-05T14:14:27.563Z,47
2022-10-05T14:15:28.614Z,47
2022-10-05T14:16:29.715Z,48
2022-10-05T14:17:32.847Z,47
2022-10-05T14:18:32.616Z,47
2022-10-05T14:19:33.597Z,46
2022-10-05T14:20:34.615Z,47
2022-10-05T14:21:35.615Z,46
2022-10-05T14:22:36.684Z,47
2022-10-05T14:23:37.659Z,47
2022-10-05T14:24:43.959Z,46
2022-10-05T14:25:40.637Z,46
2022-10-05T14:26:41.730Z,46
2022-10-05T14:27:43.634Z,46
2022-10-05T14:28:44.672Z,46
2022-10-05T14:29:46.696Z,46
2022-10-05T14:30:52.645Z,47
2022-10-05T14:31:48.713Z,47
2022-10-05T14:32:49.630Z,46
2022-10-05T14:33:50.675Z,46
2022-10-05T14:34:52.677Z,46
2022-10-05T14:35:53.606Z,45
2022-10-05T14:36:54.619Z,47